createdAt,value
2023-06-10T00:02:00.931Z,19.21
2023-06-10T00:05:04.372Z,19.24
2023-06-10T00:08:11.420Z,19.17
2023-06-10T00:11:14.165Z,19.13
2023-06-10T00:14:16.732Z,19.08
2023-06-10T00:17:19.705Z,19.07
2023-06-10T00:20:25.982Z,19.01
2023-06-10T00:23:30.454Z,18.97
2023-06-10T00:26:33.883Z,18.92
2023-06-10T00:29:36.434Z,18.95
2023-06-10T00:32:39.183Z,18.92
2023-06-10T00:35:41.763Z,18.84
2023-06-10T00:38:45.475Z,18.80
2023-06-10T00:41:47.964Z,18.76
2023-06-10T00:44:51.879Z,18.73
2023-06-10T00:47:54.825Z,18.71
2023-06-10T00:50:58.276Z,18.63
2023-06-10T00:54:01.346Z,18.60
2023-06-10T00:57:04.089Z,18.57
2023-06-10T01:00:09.421Z,18.43
2023-06-10T01:03:13.261Z,18.37
2023-06-10T01:06:30.427Z,18.39
2023-06-10T01:09:39.064Z,18.40
2023-06-10T01:13:03.699Z,18.41
2023-06-10T01:16:07.004Z,18.39
2023-06-10T01:19:10.846Z,18.35
2023-06-10T01:22:17.164Z,18.33
2023-06-10T01:25:21.964Z,18.36
2023-06-10T01:28:33.700Z,18.29
2023-06-10T01:31:38.859Z,18.37
2023-06-10T01:34:44.613Z,18.42
2023-06-10T01:37:49.538Z,18.43
2023-06-10T01:40:54.616Z,18.39
2023-06-10T01:43:57.546Z,18.35
2023-06-10T01:47:00.214Z,18.34
2023-06-10T01:50:04.080Z,18.24
2023-06-10T01:53:06.915Z,18.20
2023-06-10T01:56:09.588Z,18.14
2023-06-10T01:59:12.265Z,18.08
2023-06-10T02:02:15.053Z,18.02
2023-06-10T02:05:17.548Z,18.06
2023-06-10T02:08:20.129Z,18.09
2023-06-10T02:11:23.018Z,18.08
2023-06-10T02:14:25.838Z,18.06
2023-06-10T02:17:28.789Z,18.02
2023-06-10T02:20:32.001Z,17.91
2023-06-10T02:23:34.589Z,17.86
2023-06-10T02:26:41.403Z,17.85
2023-06-10T02:29:44.540Z,17.88
2023-06-10T02:32:49.363Z,17.88
2023-06-10T02:35:54.104Z,17.85
2023-06-10T02:38:56.808Z,17.87
2023-06-10T02:41:59.709Z,17.83
2023-06-10T02:45:02.837Z,17.85
2023-06-10T02:48:16.006Z,17.89
2023-06-10T02:51:18.841Z,17.90
2023-06-10T02:54:27.468Z,17.97
2023-06-10T02:57:32.023Z,17.93
2023-06-10T03:00:38.146Z,17.91
2023-06-10T03:03:43.883Z,17.98
2023-06-10T03:06:51.048Z,18.02
2023-06-10T03:10:00.186Z,18.09
2023-06-10T03:13:03.067Z,18.08
2023-06-10T03:16:06.394Z,18.05
2023-06-10T03:19:11.931Z,18.21
2023-06-10T03:22:18.137Z,18.27
2023-06-10T03:25:50.259Z,18.30
2023-06-10T03:28:55.233Z,18.41
2023-06-10T03:32:00.265Z,18.46
2023-06-10T03:35:04.170Z,18.50
2023-06-10T03:38:08.660Z,18.45
2023-06-10T03:41:11.341Z,18.44
2023-06-10T03:44:16.965Z,18.51
2023-06-10T03:47:20.007Z,18.55
2023-06-10T03:50:24.671Z,18.54
2023-06-10T03:53:27.200Z,18.58
2023-06-10T03:56:30.075Z,18.63
2023-06-10T03:59:32.714Z,18.59
2023-06-10T04:02:35.914Z,18.61
2023-06-10T04:05:38.621Z,18.57
2023-06-10T04:08:41.673Z,18.52
2023-06-10T04:11:44.311Z,18.49
2023-06-10T04:14:47.080Z,18.47
2023-06-10T04:17:50.514Z,18.43
2023-06-10T04:20:56.688Z,18.40
2023-06-10T04:23:59.661Z,18.41
2023-06-10T04:27:02.415Z,18.44
2023-06-10T04:30:05.682Z,18.43
2023-06-10T04:33:10.947Z,18.35
2023-06-10T04:36:15.836Z,18.37
2023-06-10T04:39:18.592Z,18.32
2023-06-10T04:42:21.729Z,18.32
2023-06-10T04:45:24.700Z,18.33
2023-06-10T04:48:27.849Z,18.37
2023-06-10T04:51:30.538Z,18.40
2023-06-10T04:54:33.903Z,18.39
2023-06-10T04:57:36.473Z,18.34
2023-06-10T05:00:39.003Z,18.35
2023-06-10T05:03:42.615Z,18.30
2023-06-10T05:06:45.761Z,18.26
2023-06-10T05:09:48.409Z,18.26
2023-06-10T05:12:50.982Z,18.29
2023-06-10T05:15:53.474Z,18.31
2023-06-10T05:18:56.102Z,18.20
2023-06-10T05:21:58.632Z,18.17
2023-06-10T05:25:01.397Z,18.22
2023-06-10T05:28:04.115Z,18.21
2023-06-10T05:31:06.722Z,18.34
2023-06-10T05:34:10.210Z,18.46
2023-06-10T05:37:13.883Z,18.59
2023-06-10T05:40:16.470Z,18.69
2023-06-10T05:43:19.053Z,18.76
2023-06-10T05:46:22.042Z,18.93
2023-06-10T05:49:24.562Z,19.04
2023-06-10T05:52:27.293Z,19.06
2023-06-10T05:55:31.280Z,19.04
2023-06-10T05:58:34.069Z,19.12
2023-06-10T06:01:36.721Z,19.24
2023-06-10T06:04:39.702Z,19.27
2023-06-10T06:07:42.626Z,19.47
2023-06-10T06:10:49.075Z,19.53
2023-06-10T06:13:53.465Z,19.87
2023-06-10T06:16:56.308Z,19.74
2023-06-10T06:19:58.858Z,19.93
2023-06-10T06:23:01.417Z,19.98
2023-06-10T06:26:04.504Z,19.95
2023-06-10T06:29:08.907Z,19.68
2023-06-10T06:32:11.489Z,19.58
2023-06-10T06:35:14.601Z,19.57
2023-06-10T06:38:17.158Z,19.53
2023-06-10T06:41:20.664Z,19.46
2023-06-10T06:44:23.245Z,19.45
2023-06-10T06:47:30.000Z,19.76
2023-06-10T06:50:32.620Z,19.89
2023-06-10T06:53:35.200Z,20.04
2023-06-10T06:56:39.356Z,20.35
2023-06-10T06:59:42.151Z,20.52
2023-06-10T07:02:44.731Z,20.74
2023-06-10T07:05:47.275Z,21.04
2023-06-10T07:08:51.485Z,21.21
2023-06-10T07:11:53.992Z,21.15
2023-06-10T07:14:56.586Z,21.48
2023-06-10T07:17:59.203Z,21.72
2023-06-10T07:21:02.717Z,22.10
2023-06-10T07:24:05.626Z,22.01
2023-06-10T07:27:08.426Z,22.41
2023-06-10T07:30:12.223Z,22.68
2023-06-10T07:33:14.881Z,23.04
2023-06-10T07:36:17.484Z,23.12
2023-06-10T07:39:20.133Z,23.38
2023-06-10T07:42:22.793Z,23.12
2023-06-10T07:45:25.383Z,23.22
2023-06-10T07:48:28.122Z,23.20
2023-06-10T07:51:30.873Z,23.47
2023-06-10T07:54:33.458Z,23.59
2023-06-10T07:57:37.668Z,23.43
2023-06-10T08:00:40.296Z,23.84
2023-06-10T08:03:44.158Z,23.99
2023-06-10T08:06:47.096Z,23.96
2023-06-10T08:09:49.611Z,24.06
2023-06-10T08:12:52.097Z,24.18
2023-06-10T08:15:56.371Z,24.70
2023-06-10T08:18:58.923Z,24.58
2023-06-10T08:22:01.505Z,24.47
2023-06-10T08:25:04.780Z,24.41
2023-06-10T08:28:07.595Z,23.87
2023-06-10T08:31:10.065Z,24.15
2023-06-10T08:34:13.124Z,24.48
2023-06-10T08:37:15.733Z,24.64
2023-06-10T08:40:18.373Z,24.41
2023-06-10T08:43:35.161Z,24.59
2023-06-10T08:46:38.881Z,24.66
2023-06-10T08:49:45.449Z,24.70
2023-06-10T08:52:51.341Z,24.37
2023-06-10T08:55:58.295Z,23.95
2023-06-10T08:59:01.201Z,24.31
2023-06-10T09:02:05.640Z,24.75
2023-06-10T09:05:09.838Z,24.78
2023-06-10T09:08:12.687Z,24.83
2023-06-10T09:11:15.686Z,24.72
2023-06-10T09:14:18.376Z,24.61
2023-06-10T09:17:21.022Z,24.56
2023-06-10T09:20:24.728Z,25.11
2023-06-10T09:23:28.664Z,25.38
2023-06-10T09:26:31.308Z,25.26
2023-06-10T09:29:56.221Z,25.14
2023-06-10T09:33:03.223Z,25.72
2023-06-10T09:36:06.172Z,26.12
2023-06-10T09:39:18.130Z,25.86
2023-06-10T09:42:20.940Z,25.29
2023-06-10T09:45:24.543Z,24.95
2023-06-10T09:48:27.056Z,24.60
2023-06-10T09:51:30.194Z,24.31
2023-06-10T09:54:33.304Z,23.96
2023-06-10T09:57:37.085Z,23.84
2023-06-10T10:00:40.169Z,23.54
2023-06-10T10:03:52.136Z,23.35
2023-06-10T10:06:54.631Z,23.17
2023-06-10T10:09:57.174Z,23.07
2023-06-10T10:13:01.568Z,23.05
2023-06-10T10:16:11.597Z,22.96
2023-06-10T10:19:21.671Z,22.93
2023-06-10T10:22:28.115Z,23.21
2023-06-10T10:25:37.223Z,23.45
2023-06-10T10:28:46.579Z,23.84
2023-06-10T10:31:52.298Z,24.35
2023-06-10T10:35:07.088Z,25.44
2023-06-10T10:38:10.566Z,26.08
2023-06-10T10:41:14.118Z,26.01
2023-06-10T10:44:17.685Z,26.15
2023-06-10T10:47:23.639Z,26.14
2023-06-10T10:50:32.001Z,25.99
2023-06-10T10:53:34.703Z,26.04
2023-06-10T10:56:37.531Z,26.59
2023-06-10T10:59:53.368Z,26.38
2023-06-10T11:03:02.208Z,26.13
2023-06-10T11:06:14.022Z,25.88
2023-06-10T11:09:29.997Z,25.67
2023-06-10T11:12:47.445Z,25.53
2023-06-10T11:15:57.848Z,25.95
2023-06-10T11:19:00.292Z,26.51
2023-06-10T11:22:05.216Z,27.34
2023-06-10T11:25:15.198Z,27.73
2023-06-10T11:28:21.348Z,28.20
2023-06-10T11:31:30.916Z,27.91
2023-06-10T11:34:33.560Z,28.26
2023-06-10T11:37:36.486Z,28.30
2023-06-10T11:40:39.743Z,27.81
2023-06-10T11:43:45.241Z,27.87
2023-06-10T11:46:51.316Z,27.73
2023-06-10T11:49:58.087Z,27.69
2023-06-10T11:53:01.163Z,27.37
2023-06-10T11:56:03.808Z,27.43
2023-06-10T11:59:08.725Z,27.26
2023-06-10T12:02:20.524Z,27.58
2023-06-10T12:05:23.506Z,28.12
2023-06-10T12:08:28.521Z,28.71
2023-06-10T12:11:31.201Z,28.28
2023-06-10T12:14:58.600Z,28.64
2023-06-10T12:18:02.719Z,28.82
2023-06-10T12:21:17.203Z,28.79
2023-06-10T12:24:19.882Z,29.06
2023-06-10T12:27:22.791Z,29.24
2023-06-10T12:30:29.940Z,28.83
2023-06-10T12:33:32.520Z,28.98
2023-06-10T12:36:35.478Z,29.41
2023-06-10T12:39:38.041Z,29.62
2023-06-10T12:42:41.025Z,30.20
2023-06-10T12:45:47.077Z,30.23
2023-06-10T12:48:53.140Z,30.34
2023-06-10T12:51:56.209Z,30.06
2023-06-10T12:54:59.680Z,29.99
2023-06-10T12:58:02.961Z,30.39
2023-06-10T13:01:05.754Z,29.77
2023-06-10T13:04:08.742Z,29.12
2023-06-10T13:07:11.735Z,29.42
2023-06-10T13:10:17.785Z,28.98
2023-06-10T13:13:20.445Z,28.75
2023-06-10T13:16:22.998Z,28.09
2023-06-10T13:19:25.639Z,27.66
2023-06-10T13:22:28.670Z,27.28
2023-06-10T13:25:31.225Z,27.18
2023-06-10T13:28:36.023Z,27.56
2023-06-10T13:31:38.848Z,27.09
2023-06-10T13:34:41.599Z,26.78
2023-06-10T13:37:44.187Z,26.71
2023-06-10T13:40:46.783Z,26.72
2023-06-10T13:43:49.443Z,26.93
2023-06-10T13:46:52.061Z,27.11
2023-06-10T13:49:54.771Z,27.52
2023-06-10T13:52:57.700Z,27.56
2023-06-10T13:56:00.765Z,27.36
2023-06-10T13:59:04.653Z,26.64
2023-06-10T14:02:07.670Z,26.01
2023-06-10T14:05:10.690Z,25.62
2023-06-10T14:08:13.428Z,25.41
2023-06-10T14:11:16.176Z,25.22
2023-06-10T14:14:18.687Z,25.14
2023-06-10T14:17:21.220Z,25.09
2023-06-10T14:20:24.499Z,25.15
2023-06-10T14:23:27.717Z,25.15
2023-06-10T14:26:30.247Z,25.12
2023-06-10T14:29:34.702Z,25.24
2023-06-10T14:32:37.404Z,25.41
2023-06-10T14:35:40.057Z,25.66
2023-06-10T14:38:42.889Z,25.83
2023-06-10T14:41:45.576Z,25.72
2023-06-10T14:44:48.292Z,26.01
2023-06-10T14:47:51.111Z,26.03
2023-06-10T14:50:55.878Z,26.12
2023-06-10T14:53:59.436Z,26.02
2023-06-10T14:57:02.387Z,25.73
2023-06-10T15:00:06.872Z,26.00
2023-06-10T15:03:09.662Z,26.32
2023-06-10T15:06:12.473Z,26.43
2023-06-10T15:09:15.175Z,26.84
2023-06-10T15:12:17.815Z,26.93
2023-06-10T15:15:20.541Z,27.20
2023-06-10T15:18:23.185Z,27.23
2023-06-10T15:21:25.725Z,26.65
2023-06-10T15:24:28.268Z,26.25
2023-06-10T15:27:30.846Z,26.45
2023-06-10T15:30:33.486Z,26.01
2023-06-10T15:33:36.002Z,25.78
2023-06-10T15:36:38.576Z,25.82
2023-06-10T15:39:41.827Z,25.09
2023-06-10T15:42:44.823Z,24.81
2023-06-10T15:45:47.542Z,24.82
2023-06-10T15:48:50.246Z,24.63
2023-06-10T15:51:52.824Z,24.49
2023-06-10T15:54:55.511Z,24.28
2023-06-10T15:58:01.681Z,24.15
2023-06-10T16:01:04.344Z,24.03
2023-06-10T16:04:06.894Z,23.76
2023-06-10T16:07:09.716Z,23.60
2023-06-10T16:10:12.452Z,23.57
2023-06-10T16:13:16.404Z,23.58
2023-06-10T16:16:19.007Z,23.43
2023-06-10T16:19:21.595Z,23.40
2023-06-10T16:22:24.065Z,23.34
2023-06-10T16:25:26.620Z,23.20
2023-06-10T16:28:29.180Z,22.97
2023-06-10T16:31:32.231Z,22.85
2023-06-10T16:34:35.000Z,22.92
2023-06-10T16:37:37.778Z,22.76
2023-06-10T16:40:40.392Z,22.78
2023-06-10T16:43:42.956Z,22.61
2023-06-10T16:46:45.532Z,22.59
2023-06-10T16:49:50.430Z,22.65
2023-06-10T16:52:53.575Z,22.54
2023-06-10T16:55:56.307Z,22.47
2023-06-10T16:58:58.897Z,22.50
2023-06-10T17:02:03.587Z,22.49
2023-06-10T17:05:07.331Z,22.46
2023-06-10T17:08:10.349Z,22.44
2023-06-10T17:11:13.087Z,22.55
2023-06-10T17:14:15.760Z,22.47
2023-06-10T17:17:18.525Z,22.44
2023-06-10T17:20:21.756Z,22.44
2023-06-10T17:23:24.673Z,22.39
2023-06-10T17:26:28.164Z,22.35
2023-06-10T17:29:30.681Z,22.38
2023-06-10T17:32:34.585Z,22.41
2023-06-10T17:35:37.470Z,22.42
2023-06-10T17:38:40.822Z,22.36
2023-06-10T17:41:43.374Z,22.39
2023-06-10T17:44:45.945Z,22.36
2023-06-10T17:47:48.559Z,22.36
2023-06-10T17:50:51.126Z,22.32
2023-06-10T17:53:53.655Z,22.34
2023-06-10T17:56:56.233Z,22.33
2023-06-10T17:59:59.692Z,22.31
2023-06-10T18:03:02.586Z,22.32
2023-06-10T18:06:05.427Z,22.31
2023-06-10T18:09:10.820Z,22.23
2023-06-10T18:12:15.082Z,22.23
2023-06-10T18:15:17.781Z,22.22
2023-06-10T18:18:20.580Z,22.21
2023-06-10T18:21:23.247Z,22.08
2023-06-10T18:24:26.021Z,22.02
2023-06-10T18:27:29.720Z,21.95
2023-06-10T18:30:32.342Z,21.95
2023-06-10T18:33:35.011Z,21.92
2023-06-10T18:36:37.609Z,21.90
2023-06-10T18:39:40.381Z,21.90
2023-06-10T18:42:42.871Z,21.88
2023-06-10T18:45:45.642Z,21.88
2023-06-10T18:48:50.351Z,21.92
2023-06-10T18:51:53.292Z,21.94
2023-06-10T18:54:55.846Z,21.93
2023-06-10T18:57:58.401Z,21.84
2023-06-10T19:01:01.428Z,21.89
2023-06-10T19:04:04.440Z,21.85
2023-06-10T19:07:07.025Z,21.86
2023-06-10T19:10:09.907Z,21.82
2023-06-10T19:13:12.419Z,21.88
2023-06-10T19:16:14.988Z,21.88
2023-06-10T19:19:18.285Z,21.86
2023-06-10T19:22:21.117Z,21.86
2023-06-10T19:25:23.888Z,21.81
2023-06-10T19:28:26.930Z,21.79
2023-06-10T19:31:29.705Z,21.77
2023-06-10T19:34:32.315Z,21.75
2023-06-10T19:37:34.965Z,21.68
2023-06-10T19:40:37.675Z,21.68
2023-06-10T19:43:40.226Z,21.67
2023-06-10T19:46:43.426Z,21.61
2023-06-10T19:49:46.026Z,21.59
2023-06-10T19:52:49.667Z,21.55
2023-06-10T19:55:52.347Z,21.48
2023-06-10T19:58:57.164Z,21.42
2023-06-10T20:02:00.894Z,21.38
2023-06-10T20:05:04.775Z,21.28
2023-06-10T20:08:08.315Z,21.23
2023-06-10T20:11:11.966Z,21.17
2023-06-10T20:14:15.172Z,21.14
2023-06-10T20:17:17.881Z,21.07
2023-06-10T20:20:20.613Z,21.06
2023-06-10T20:23:23.412Z,21.00
2023-06-10T20:26:26.074Z,20.96
2023-06-10T20:29:28.655Z,20.89
2023-06-10T20:32:31.219Z,20.82
2023-06-10T20:35:34.412Z,20.83
2023-06-10T20:38:37.012Z,20.82
2023-06-10T20:41:39.643Z,20.86
2023-06-10T20:44:42.526Z,20.82
2023-06-10T20:47:45.568Z,20.78
2023-06-10T20:50:48.148Z,20.74
2023-06-10T20:53:51.627Z,20.69
2023-06-10T20:56:54.141Z,20.69
2023-06-10T20:59:57.698Z,20.64
2023-06-10T21:03:00.301Z,20.69
2023-06-10T21:06:03.506Z,20.68
2023-06-10T21:09:06.087Z,20.67
2023-06-10T21:12:09.222Z,20.65
2023-06-10T21:15:12.257Z,20.66
2023-06-10T21:18:16.589Z,20.67
2023-06-10T21:21:19.289Z,20.70
2023-06-10T21:24:22.994Z,20.76
2023-06-10T21:27:25.929Z,20.79
2023-06-10T21:30:30.800Z,20.81
2023-06-10T21:33:33.573Z,20.82
2023-06-10T21:36:36.476Z,20.80
2023-06-10T21:39:39.048Z,20.82
2023-06-10T21:42:42.043Z,20.85
2023-06-10T21:45:45.134Z,20.86
2023-06-10T21:48:48.935Z,20.86
2023-06-10T21:51:52.388Z,20.85
2023-06-10T21:54:55.530Z,20.82
2023-06-10T21:57:58.735Z,20.70
2023-06-10T22:01:02.936Z,20.62
2023-06-10T22:04:05.723Z,20.48
2023-06-10T22:07:09.850Z,20.44
2023-06-10T22:10:12.462Z,20.37
2023-06-10T22:13:17.109Z,20.34
2023-06-10T22:16:20.187Z,20.31
2023-06-10T22:19:23.155Z,20.29
2023-06-10T22:22:26.480Z,20.23
2023-06-10T22:25:29.832Z,20.20
2023-06-10T22:28:32.413Z,20.20
2023-06-10T22:31:35.258Z,20.20
2023-06-10T22:34:39.868Z,20.22
2023-06-10T22:37:42.501Z,20.20
2023-06-10T22:40:45.243Z,20.15
2023-06-10T22:43:48.988Z,20.13
2023-06-10T22:46:51.645Z,20.12
2023-06-10T22:49:54.196Z,20.17
2023-06-10T22:52:56.848Z,20.23
2023-06-10T22:55:59.342Z,20.24
2023-06-10T22:59:03.719Z,20.28
2023-06-10T23:02:06.755Z,20.25
2023-06-10T23:05:11.062Z,20.24
2023-06-10T23:08:13.934Z,20.23
2023-06-10T23:11:16.716Z,20.18
2023-06-10T23:14:19.306Z,20.15
2023-06-10T23:17:21.999Z,20.22
2023-06-10T23:20:27.512Z,20.09
2023-06-10T23:23:35.982Z,20.12
2023-06-10T23:26:39.608Z,20.11
2023-06-10T23:29:56.519Z,20.15
2023-06-10T23:33:02.271Z,20.14
2023-06-10T23:36:05.068Z,20.19
2023-06-10T23:39:11.135Z,20.25
2023-06-10T23:42:14.209Z,20.24
2023-06-10T23:45:17.357Z,20.18
2023-06-10T23:48:19.885Z,20.24
2023-06-10T23:51:22.752Z,20.19
2023-06-10T23:54:27.085Z,20.22
2023-06-10T23:57:29.832Z,20.22
